Flight Track Log - Related Links

Times and Time Zones

All times are in EDT time to prevent confusion due to time zone crossing. See the SWA714 flight status page for this flight to view local times or setup timezone preferences in your user account.

Time Position Orientation Groundspeed Altitude Reporting Facility
EDT Latitude Longitude Course Direction KTS MPH feet Rate Location/Type
Fri 04:24:58 PM 29.5503 -98.4439 31° Northeast 164 189 1,900  Level Houston Center
Fri 04:26:10 PM 29.6103 -98.4031 31° Northeast 218 251 4,500 1,970 Climbing Houston Center
Fri 04:27:12 PM 29.6836 -98.4000 North 268 308 6,300 2,244 Climbing Houston Center
Fri 04:28:13 PM 29.7708 -98.4003 360° North 297 342 9,100 2,226 Climbing Houston Center
Fri 04:29:16 PM 29.8592 -98.3969 North 313 360 10,900 1,824 Climbing Houston Center
Fri 04:30:18 PM 29.9664 -98.3956 North 358 412 12,900 2,177 Climbing Houston Center
Fri 04:31:20 PM 30.0719 -98.3928 North 377 434 15,400 2,371 Climbing Houston Center
Fri 04:32:22 PM 30.1894 -98.3814 North 399 459 17,800 2,226 Climbing Houston Center
Fri 04:33:24 PM 30.3064 -98.3639 North 420 483 20,000 2,032 Climbing Houston Center
Fri 04:34:26 PM 30.4197 -98.3467 North 430 495 22,000 1,762 Climbing Houston Center
Fri 04:35:30 PM 30.5414 -98.3283 North 432 497 23,700 1,680 Climbing Houston Center
Fri 04:36:31 PM 30.6672 -98.3106 North 443 510 25,500 1,512 Climbing Houston Center
Fri 04:37:33 PM 30.7969 -98.2917 North 457 526 26,800 1,485 Climbing Houston Center
Fri 04:38:08 PM 30.8908 -98.2800 North 458 527 27,900 766 Climbing Fort Worth Center
Fri 04:39:07 PM 31.0203 -98.2592 North 470 541 28,000 50 Climbing Fort Worth Center
Fri 04:40:08 PM 31.1542 -98.2411 North 470 541 28,000 -600 Level Fort Worth Center
Fri 04:41:07 PM 31.2839 -98.2058 13° North 470 541 26,800 -1,261 Descending Fort Worth Center
Fri 04:42:07 PM 31.4011 -98.1217 31° Northeast 477 549 25,500 -1,488 Descending Fort Worth Center
Fri 04:43:08 PM 31.5206 -98.0397 30° Northeast 490 564 23,800 -1,488 Descending Fort Worth Center
Fri 04:44:08 PM 31.6233 -97.9647 32° Northeast 490 564 22,500 -1,513 Descending Fort Worth Center
Fri 04:45:07 PM 31.7406 -97.8825 31° Northeast 483 556 20,800 -2,350 Descending Fort Worth Center
Fri 04:46:08 PM 31.8517 -97.7997 32° Northeast 477 549 17,800 -2,826 Descending Fort Worth Center
Fri 04:47:08 PM 31.9667 -97.7147 32° Northeast 448 516 15,100 -2,773 Descending Fort Worth Center
Fri 04:48:07 PM 32.0544 -97.6511 32° Northeast 420 483 12,300 -2,650 Descending Fort Worth Center
Fri 04:49:08 PM 32.1528 -97.5803 31° Northeast 391 450 9,800 -1,450 Descending Fort Worth Center
Fri 04:50:07 PM 32.2236 -97.5264 33° Northeast 352 405 9,400 -1,000 Descending Fort Worth Center
Fri 04:51:08 PM 32.3011 -97.4650 34° Northeast 313 360 7,800 -1,488 Descending Fort Worth Center
Fri 04:52:08 PM 32.3617 -97.4086 38° Northeast 304 350 6,400 -1,300 Descending Fort Worth Center
Fri 04:53:08 PM 32.3867 -97.3100 73° East 269 310 5,200 -706 Descending Fort Worth Center
Fri 04:54:07 PM 32.4011 -97.2339 77° East 269 310 5,000 -100 Descending Fort Worth Center
Fri 04:55:08 PM 32.4197 -97.1353 77° East 269 310 5,000  Level Fort Worth Center
Fri 04:56:08 PM 32.4342 -97.0564 78° East 275 316 5,000 -50 Level Fort Worth Center
Fri 04:57:07 PM 32.4506 -96.9628 78° East 275 316 4,900 -400 Descending Fort Worth Center
Fri 04:58:08 PM 32.4647 -96.8864 78° East 270 311 4,200 -446 Descending Fort Worth Center
Fri 04:59:08 PM 32.5000 -96.8025 63° Northeast 270 311 4,000 -101 Descending Fort Worth Center
Fri 05:00:07 PM 32.5497 -96.7233 53° Northeast 272 313 4,000  Level Fort Worth Center
Fri 05:01:08 PM 32.5911 -96.6589 53° Northeast 277 319 4,000  Level Fort Worth Center
Fri 05:02:08 PM 32.6408 -96.5967 46° Northeast 248 285 4,000  Level Fort Worth Center
Fri 05:03:08 PM 32.7033 -96.6011 357° North 219 252 4,000  Level Fort Worth Center
Fri 05:05:32 PM 32.8333 -96.7000 327° Northwest 242 278 4,000 -182 Level Dallas / Fort Worth TRACON
Fri 05:06:26 PM 32.8833 -96.7500 320° Northwest 240 276 3,400 -526 Descending Dallas / Fort Worth TRACON
Fri 05:07:26 PM 32.9167 -96.8167 301° West 233 268 3,000 -400 Descending Dallas / Fort Worth TRACON

Login

Don't have an account? Register now (free) for customized features, flight alerts, and more!